Pagina principale
METAR-TAF:

METAR-TAF

Aeroporti :

Andora, Italia

Capo Mele

latitudine: 43-57N, longitudine: 008-10E, altezza: 220 m

Osservazione

Il bollettino è stato emesso 47 minuti fa, alle 19:55 UTC
Vento 10 kt da sud-ovest
Temperature 23°C
Umidità 89%
Pressione 1005 hPa
Visibilità 10 km o più
Poco nuvoloso ad un'altezza di 2500 ft

METAR: LIMU 251955Z 22010KT 9999 FEW025 23/21 Q1005 RMK FEW QUK / QUL / VIS MAR 35 KM VIS MIN 9999

Ora: 22:42 (20:42 UTC)


TAF: mancante

Osservazioni e previsioni meteorologiche di più di 4000 aeroporti (messaggi METAR e TAF).

Le stazioni disponibili sono rappresentate dai dischi gialli e rossi sulla carta.

Puntare il mouse per vedere il nome della stazione.

Clicca sopra per visualizzare le osservazioni e previsioni meteorologiche.

Per cambiare la mappa : fare clic sui pulsanti verdi con una croce nera per ingrandire, il pulsante verde con un trattino per diminuire, o sulla freccia verde per le mappe adiacenti.


METAR-TAF: